sensor_id;sensor_type;location;lat;lon;timestamp;P1;durP1;ratioP1;P2;durP2;ratioP2
26951;SDS011;14507;52.418;13.398;2022-12-10T00:00:19;37.40;;;17.75;;
26951;SDS011;14507;52.418;13.398;2022-12-10T00:02:45;39.53;;;17.85;;
26951;SDS011;14507;52.418;13.398;2022-12-10T00:05:10;37.10;;;17.17;;
26951;SDS011;14507;52.418;13.398;2022-12-10T00:07:36;37.17;;;17.55;;
26951;SDS011;14507;52.418;13.398;2022-12-10T00:10:02;34.50;;;16.40;;
26951;SDS011;14507;52.418;13.398;2022-12-10T00:12:28;37.88;;;18.05;;
26951;SDS011;14507;52.418;13.398;2022-12-10T00:14:54;36.08;;;17.10;;
26951;SDS011;14507;52.418;13.398;2022-12-10T00:17:22;38.15;;;18.77;;
26951;SDS011;14507;52.418;13.398;2022-12-10T00:19:47;39.70;;;17.42;;
26951;SDS011;14507;52.418;13.398;2022-12-10T00:22:13;38.67;;;17.35;;
26951;SDS011;14507;52.418;13.398;2022-12-10T00:24:39;38.08;;;17.75;;
26951;SDS011;14507;52.418;13.398;2022-12-10T00:27:04;35.97;;;17.45;;
26951;SDS011;14507;52.418;13.398;2022-12-10T00:29:30;36.83;;;17.40;;
26951;SDS011;14507;52.418;13.398;2022-12-10T00:31:55;38.03;;;17.65;;
26951;SDS011;14507;52.418;13.398;2022-12-10T00:34:21;37.92;;;18.05;;
26951;SDS011;14507;52.418;13.398;2022-12-10T00:36:47;41.17;;;18.63;;
26951;SDS011;14507;52.418;13.398;2022-12-10T00:39:16;39.92;;;18.60;;
26951;SDS011;14507;52.418;13.398;2022-12-10T00:41:43;40.08;;;17.90;;
26951;SDS011;14507;52.418;13.398;2022-12-10T00:44:09;36.70;;;17.13;;
26951;SDS011;14507;52.418;13.398;2022-12-10T00:46:35;35.15;;;16.23;;
26951;SDS011;14507;52.418;13.398;2022-12-10T00:49:00;33.95;;;16.80;;
26951;SDS011;14507;52.418;13.398;2022-12-10T00:51:28;34.60;;;17.52;;
26951;SDS011;14507;52.418;13.398;2022-12-10T00:53:55;32.03;;;15.93;;
26951;SDS011;14507;52.418;13.398;2022-12-10T00:56:26;37.00;;;16.08;;
26951;SDS011;14507;52.418;13.398;2022-12-10T00:58:56;36.80;;;17.27;;
26951;SDS011;14507;52.418;13.398;2022-12-10T01:01:26;35.83;;;16.98;;
26951;SDS011;14507;52.418;13.398;2022-12-10T01:03:53;37.87;;;16.97;;
26951;SDS011;14507;52.418;13.398;2022-12-10T01:06:22;33.15;;;16.38;;
26951;SDS011;14507;52.418;13.398;2022-12-10T01:08:50;36.25;;;17.52;;
26951;SDS011;14507;52.418;13.398;2022-12-10T01:11:18;37.78;;;17.92;;
26951;SDS011;14507;52.418;13.398;2022-12-10T01:13:46;38.90;;;17.92;;
26951;SDS011;14507;52.418;13.398;2022-12-10T01:16:14;33.83;;;16.40;;
26951;SDS011;14507;52.418;13.398;2022-12-10T01:18:41;35.42;;;17.35;;
26951;SDS011;14507;52.418;13.398;2022-12-10T01:21:10;37.38;;;16.65;;
26951;SDS011;14507;52.418;13.398;2022-12-10T01:23:40;36.55;;;16.15;;
26951;SDS011;14507;52.418;13.398;2022-12-10T01:26:14;36.33;;;16.15;;
26951;SDS011;14507;52.418;13.398;2022-12-10T01:28:42;37.60;;;17.85;;
26951;SDS011;14507;52.418;13.398;2022-12-10T01:31:15;39.83;;;17.95;;
26951;SDS011;14507;52.418;13.398;2022-12-10T01:33:45;37.40;;;17.33;;
26951;SDS011;14507;52.418;13.398;2022-12-10T01:36:16;36.92;;;17.35;;
26951;SDS011;14507;52.418;13.398;2022-12-10T01:38:43;37.83;;;17.88;;
26951;SDS011;14507;52.418;13.398;2022-12-10T01:41:14;37.55;;;17.50;;
26951;SDS011;14507;52.418;13.398;2022-12-10T01:43:52;39.30;;;17.70;;
26951;SDS011;14507;52.418;13.398;2022-12-10T01:46:22;44.03;;;18.98;;
26951;SDS011;14507;52.418;13.398;2022-12-10T01:48:49;40.30;;;17.65;;
26951;SDS011;14507;52.418;13.398;2022-12-10T01:51:15;37.83;;;16.50;;
26951;SDS011;14507;52.418;13.398;2022-12-10T01:53:42;42.45;;;18.08;;
26951;SDS011;14507;52.418;13.398;2022-12-10T01:56:09;39.88;;;17.98;;
26951;SDS011;14507;52.418;13.398;2022-12-10T01:58:35;43.85;;;19.15;;
26951;SDS011;14507;52.418;13.398;2022-12-10T02:07:04;44.85;;;18.80;;
26951;SDS011;14507;52.418;13.398;2022-12-10T02:17:45;41.92;;;18.73;;
26951;SDS011;14507;52.418;13.398;2022-12-10T02:23:01;41.75;;;19.05;;
26951;SDS011;14507;52.418;13.398;2022-12-10T02:31:01;44.13;;;18.58;;
26951;SDS011;14507;52.418;13.398;2022-12-10T02:33:28;37.60;;;16.90;;
26951;SDS011;14507;52.418;13.398;2022-12-10T02:35:55;36.92;;;17.17;;
26951;SDS011;14507;52.418;13.398;2022-12-10T02:38:26;37.55;;;18.23;;
26951;SDS011;14507;52.418;13.398;2022-12-10T02:43:47;36.90;;;18.02;;
26951;SDS011;14507;52.418;13.398;2022-12-10T02:46:17;41.75;;;18.10;;
26951;SDS011;14507;52.418;13.398;2022-12-10T02:48:43;36.38;;;17.35;;
26951;SDS011;14507;52.418;13.398;2022-12-10T02:51:11;37.97;;;18.30;;
26951;SDS011;14507;52.418;13.398;2022-12-10T02:53:43;36.78;;;17.70;;
26951;SDS011;14507;52.418;13.398;2022-12-10T03:04:14;40.03;;;18.00;;
26951;SDS011;14507;52.418;13.398;2022-12-10T03:06:58;36.65;;;17.52;;
26951;SDS011;14507;52.418;13.398;2022-12-10T03:09:39;40.00;;;17.55;;
26951;SDS011;14507;52.418;13.398;2022-12-10T03:14:46;35.47;;;17.77;;
26951;SDS011;14507;52.418;13.398;2022-12-10T03:17:12;33.92;;;16.98;;
26951;SDS011;14507;52.418;13.398;2022-12-10T03:19:40;37.95;;;17.52;;
26951;SDS011;14507;52.418;13.398;2022-12-10T03:22:11;41.13;;;17.73;;
26951;SDS011;14507;52.418;13.398;2022-12-10T03:24:43;36.30;;;16.83;;
26951;SDS011;14507;52.418;13.398;2022-12-10T03:27:09;36.05;;;18.55;;
26951;SDS011;14507;52.418;13.398;2022-12-10T03:29:42;38.58;;;18.65;;
26951;SDS011;14507;52.418;13.398;2022-12-10T03:32:12;36.60;;;18.70;;
26951;SDS011;14507;52.418;13.398;2022-12-10T03:34:39;38.35;;;18.23;;
26951;SDS011;14507;52.418;13.398;2022-12-10T03:37:05;40.35;;;18.77;;
26951;SDS011;14507;52.418;13.398;2022-12-10T03:39:31;39.60;;;18.63;;
26951;SDS011;14507;52.418;13.398;2022-12-10T03:41:57;40.65;;;18.38;;
26951;SDS011;14507;52.418;13.398;2022-12-10T03:44:27;39.47;;;18.38;;
26951;SDS011;14507;52.418;13.398;2022-12-10T03:46:54;41.10;;;19.35;;
26951;SDS011;14507;52.418;13.398;2022-12-10T03:49:20;37.85;;;18.65;;
26951;SDS011;14507;52.418;13.398;2022-12-10T03:51:45;37.75;;;18.48;;
26951;SDS011;14507;52.418;13.398;2022-12-10T03:54:11;39.00;;;18.77;;
26951;SDS011;14507;52.418;13.398;2022-12-10T03:56:37;43.85;;;19.63;;
26951;SDS011;14507;52.418;13.398;2022-12-10T03:59:02;41.92;;;20.42;;
26951;SDS011;14507;52.418;13.398;2022-12-10T04:01:28;41.13;;;20.10;;
26951;SDS011;14507;52.418;13.398;2022-12-10T04:03:54;39.13;;;18.73;;
26951;SDS011;14507;52.418;13.398;2022-12-10T04:06:19;44.35;;;20.45;;
26951;SDS011;14507;52.418;13.398;2022-12-10T04:08:45;46.25;;;21.50;;
26951;SDS011;14507;52.418;13.398;2022-12-10T04:11:12;44.38;;;18.60;;
26951;SDS011;14507;52.418;13.398;2022-12-10T04:13:39;46.90;;;20.17;;
26951;SDS011;14507;52.418;13.398;2022-12-10T04:16:24;43.22;;;19.70;;
26951;SDS011;14507;52.418;13.398;2022-12-10T04:18:57;44.92;;;20.00;;
26951;SDS011;14507;52.418;13.398;2022-12-10T04:21:25;39.70;;;18.75;;
26951;SDS011;14507;52.418;13.398;2022-12-10T04:24:12;44.47;;;20.98;;
26951;SDS011;14507;52.418;13.398;2022-12-10T04:26:58;41.00;;;19.58;;
26951;SDS011;14507;52.418;13.398;2022-12-10T04:29:29;46.45;;;20.40;;
26951;SDS011;14507;52.418;13.398;2022-12-10T04:31:56;42.42;;;19.92;;
26951;SDS011;14507;52.418;13.398;2022-12-10T04:34:22;40.83;;;19.65;;
26951;SDS011;14507;52.418;13.398;2022-12-10T04:36:49;43.20;;;20.13;;
26951;SDS011;14507;52.418;13.398;2022-12-10T04:39:15;45.03;;;20.42;;
26951;SDS011;14507;52.418;13.398;2022-12-10T04:41:43;42.85;;;20.38;;
26951;SDS011;14507;52.418;13.398;2022-12-10T04:44:10;44.33;;;20.63;;
26951;SDS011;14507;52.418;13.398;2022-12-10T04:46:35;43.75;;;19.27;;
26951;SDS011;14507;52.418;13.398;2022-12-10T04:49:02;42.70;;;19.10;;
26951;SDS011;14507;52.418;13.398;2022-12-10T04:51:29;44.20;;;20.13;;
26951;SDS011;14507;52.418;13.398;2022-12-10T04:53:55;45.13;;;20.38;;
26951;SDS011;14507;52.418;13.398;2022-12-10T04:56:20;43.45;;;19.67;;
26951;SDS011;14507;52.418;13.398;2022-12-10T04:58:46;43.30;;;20.58;;
26951;SDS011;14507;52.418;13.398;2022-12-10T05:01:12;39.70;;;19.40;;
26951;SDS011;14507;52.418;13.398;2022-12-10T05:03:38;43.33;;;20.10;;
26951;SDS011;14507;52.418;13.398;2022-12-10T05:06:08;45.03;;;20.92;;
26951;SDS011;14507;52.418;13.398;2022-12-10T05:08:35;42.70;;;20.42;;
26951;SDS011;14507;52.418;13.398;2022-12-10T05:11:03;41.60;;;19.48;;
26951;SDS011;14507;52.418;13.398;2022-12-10T05:13:31;42.05;;;20.33;;
26951;SDS011;14507;52.418;13.398;2022-12-10T05:16:03;43.35;;;20.02;;
26951;SDS011;14507;52.418;13.398;2022-12-10T05:18:29;41.15;;;19.88;;
26951;SDS011;14507;52.418;13.398;2022-12-10T05:20:58;43.28;;;21.20;;
26951;SDS011;14507;52.418;13.398;2022-12-10T05:23:24;43.10;;;20.30;;
26951;SDS011;14507;52.418;13.398;2022-12-10T05:28:35;43.63;;;19.33;;
26951;SDS011;14507;52.418;13.398;2022-12-10T05:31:04;44.38;;;20.25;;
26951;SDS011;14507;52.418;13.398;2022-12-10T05:33:30;44.10;;;20.27;;
26951;SDS011;14507;52.418;13.398;2022-12-10T05:35:57;43.15;;;20.10;;
26951;SDS011;14507;52.418;13.398;2022-12-10T05:38:25;44.97;;;20.60;;
26951;SDS011;14507;52.418;13.398;2022-12-10T05:40:53;44.03;;;20.53;;
26951;SDS011;14507;52.418;13.398;2022-12-10T05:43:19;41.75;;;19.70;;
26951;SDS011;14507;52.418;13.398;2022-12-10T05:45:45;44.58;;;21.02;;
26951;SDS011;14507;52.418;13.398;2022-12-10T05:48:11;42.67;;;19.83;;
26951;SDS011;14507;52.418;13.398;2022-12-10T05:50:38;42.47;;;19.80;;
26951;SDS011;14507;52.418;13.398;2022-12-10T05:53:04;45.92;;;21.35;;
26951;SDS011;14507;52.418;13.398;2022-12-10T05:55:30;42.53;;;20.15;;
26951;SDS011;14507;52.418;13.398;2022-12-10T05:57:57;45.35;;;21.15;;
26951;SDS011;14507;52.418;13.398;2022-12-10T06:00:24;44.22;;;20.77;;
26951;SDS011;14507;52.418;13.398;2022-12-10T06:02:50;44.47;;;21.33;;
26951;SDS011;14507;52.418;13.398;2022-12-10T06:05:16;44.35;;;20.88;;
26951;SDS011;14507;52.418;13.398;2022-12-10T06:07:42;40.05;;;19.73;;
26951;SDS011;14507;52.418;13.398;2022-12-10T06:10:08;43.80;;;21.40;;
26951;SDS011;14507;52.418;13.398;2022-12-10T06:12:34;43.95;;;19.77;;
26951;SDS011;14507;52.418;13.398;2022-12-10T06:14:59;44.67;;;20.77;;
26951;SDS011;14507;52.418;13.398;2022-12-10T06:17:25;46.38;;;20.88;;
26951;SDS011;14507;52.418;13.398;2022-12-10T06:19:51;42.38;;;20.33;;
26951;SDS011;14507;52.418;13.398;2022-12-10T06:22:16;40.45;;;19.90;;
26951;SDS011;14507;52.418;13.398;2022-12-10T06:24:42;45.55;;;21.23;;
26951;SDS011;14507;52.418;13.398;2022-12-10T06:27:08;41.45;;;20.58;;
26951;SDS011;14507;52.418;13.398;2022-12-10T06:29:33;45.60;;;20.50;;
26951;SDS011;14507;52.418;13.398;2022-12-10T06:31:59;42.03;;;19.95;;
26951;SDS011;14507;52.418;13.398;2022-12-10T06:34:25;41.17;;;20.00;;
26951;SDS011;14507;52.418;13.398;2022-12-10T06:36:50;43.17;;;19.90;;
26951;SDS011;14507;52.418;13.398;2022-12-10T06:39:16;44.47;;;21.02;;
26951;SDS011;14507;52.418;13.398;2022-12-10T06:41:41;43.08;;;19.75;;
26951;SDS011;14507;52.418;13.398;2022-12-10T06:44:09;42.90;;;20.17;;
26951;SDS011;14507;52.418;13.398;2022-12-10T06:46:35;39.83;;;19.15;;
26951;SDS011;14507;52.418;13.398;2022-12-10T06:49:01;40.65;;;19.13;;
26951;SDS011;14507;52.418;13.398;2022-12-10T06:51:27;44.05;;;20.30;;
26951;SDS011;14507;52.418;13.398;2022-12-10T06:53:53;44.63;;;20.77;;
26951;SDS011;14507;52.418;13.398;2022-12-10T06:56:19;42.15;;;20.27;;
26951;SDS011;14507;52.418;13.398;2022-12-10T06:58:45;39.35;;;19.92;;
26951;SDS011;14507;52.418;13.398;2022-12-10T07:01:15;40.70;;;19.70;;
26951;SDS011;14507;52.418;13.398;2022-12-10T07:03:47;42.63;;;19.75;;
26951;SDS011;14507;52.418;13.398;2022-12-10T07:06:14;42.45;;;21.10;;
26951;SDS011;14507;52.418;13.398;2022-12-10T07:08:40;40.90;;;20.13;;
26951;SDS011;14507;52.418;13.398;2022-12-10T07:11:06;40.90;;;20.10;;
26951;SDS011;14507;52.418;13.398;2022-12-10T07:13:33;40.03;;;19.23;;
26951;SDS011;14507;52.418;13.398;2022-12-10T07:15:58;37.90;;;18.48;;
26951;SDS011;14507;52.418;13.398;2022-12-10T07:18:24;37.60;;;18.02;;
26951;SDS011;14507;52.418;13.398;2022-12-10T07:20:50;37.40;;;18.95;;
26951;SDS011;14507;52.418;13.398;2022-12-10T07:23:15;38.85;;;19.13;;
26951;SDS011;14507;52.418;13.398;2022-12-10T07:25:41;36.15;;;17.35;;
26951;SDS011;14507;52.418;13.398;2022-12-10T07:28:07;35.35;;;18.05;;
26951;SDS011;14507;52.418;13.398;2022-12-10T07:30:32;35.38;;;18.65;;
26951;SDS011;14507;52.418;13.398;2022-12-10T07:32:58;34.78;;;17.77;;
26951;SDS011;14507;52.418;13.398;2022-12-10T07:35:24;33.45;;;17.77;;
26951;SDS011;14507;52.418;13.398;2022-12-10T07:37:50;36.88;;;18.73;;
26951;SDS011;14507;52.418;13.398;2022-12-10T07:40:15;40.75;;;19.42;;
26951;SDS011;14507;52.418;13.398;2022-12-10T07:42:41;40.00;;;18.42;;
26951;SDS011;14507;52.418;13.398;2022-12-10T07:45:07;34.03;;;17.88;;
26951;SDS011;14507;52.418;13.398;2022-12-10T07:47:37;35.45;;;18.52;;
26951;SDS011;14507;52.418;13.398;2022-12-10T07:50:04;34.00;;;17.77;;
26951;SDS011;14507;52.418;13.398;2022-12-10T07:52:30;34.55;;;17.30;;
26951;SDS011;14507;52.418;13.398;2022-12-10T07:54:59;32.03;;;17.23;;
26951;SDS011;14507;52.418;13.398;2022-12-10T07:57:25;37.72;;;18.45;;
26951;SDS011;14507;52.418;13.398;2022-12-10T07:59:50;33.55;;;17.52;;
26951;SDS011;14507;52.418;13.398;2022-12-10T08:02:16;31.30;;;16.40;;
26951;SDS011;14507;52.418;13.398;2022-12-10T08:04:42;34.40;;;17.00;;
26951;SDS011;14507;52.418;13.398;2022-12-10T08:07:10;33.05;;;16.17;;
26951;SDS011;14507;52.418;13.398;2022-12-10T08:09:36;33.47;;;17.20;;
26951;SDS011;14507;52.418;13.398;2022-12-10T08:12:01;30.15;;;15.60;;
26951;SDS011;14507;52.418;13.398;2022-12-10T08:14:27;32.78;;;16.63;;
26951;SDS011;14507;52.418;13.398;2022-12-10T08:16:53;32.75;;;16.70;;
26951;SDS011;14507;52.418;13.398;2022-12-10T08:19:18;32.10;;;16.67;;
26951;SDS011;14507;52.418;13.398;2022-12-10T08:21:44;31.63;;;17.10;;
26951;SDS011;14507;52.418;13.398;2022-12-10T08:24:10;34.97;;;17.83;;
26951;SDS011;14507;52.418;13.398;2022-12-10T08:26:35;34.90;;;16.67;;
26951;SDS011;14507;52.418;13.398;2022-12-10T08:29:01;35.45;;;16.83;;
26951;SDS011;14507;52.418;13.398;2022-12-10T08:31:27;30.33;;;16.02;;
26951;SDS011;14507;52.418;13.398;2022-12-10T08:33:53;32.45;;;17.25;;
26951;SDS011;14507;52.418;13.398;2022-12-10T08:36:19;32.35;;;16.98;;
26951;SDS011;14507;52.418;13.398;2022-12-10T08:38:45;28.73;;;15.82;;
26951;SDS011;14507;52.418;13.398;2022-12-10T08:41:19;30.67;;;16.92;;
26951;SDS011;14507;52.418;13.398;2022-12-10T08:43:46;30.55;;;15.35;;
26951;SDS011;14507;52.418;13.398;2022-12-10T08:46:12;34.45;;;17.85;;
26951;SDS011;14507;52.418;13.398;2022-12-10T08:48:40;30.02;;;16.40;;
26951;SDS011;14507;52.418;13.398;2022-12-10T08:51:06;28.63;;;15.55;;
26951;SDS011;14507;52.418;13.398;2022-12-10T08:53:32;29.05;;;16.20;;
26951;SDS011;14507;52.418;13.398;2022-12-10T08:55:58;32.28;;;16.45;;
26951;SDS011;14507;52.418;13.398;2022-12-10T08:58:27;29.75;;;16.33;;
26951;SDS011;14507;52.418;13.398;2022-12-10T09:00:53;28.85;;;16.42;;
26951;SDS011;14507;52.418;13.398;2022-12-10T09:03:18;31.50;;;16.65;;
26951;SDS011;14507;52.418;13.398;2022-12-10T09:05:44;30.20;;;16.48;;
26951;SDS011;14507;52.418;13.398;2022-12-10T09:08:10;31.50;;;16.08;;
26951;SDS011;14507;52.418;13.398;2022-12-10T09:10:36;30.50;;;16.15;;
26951;SDS011;14507;52.418;13.398;2022-12-10T09:13:03;31.10;;;15.93;;
26951;SDS011;14507;52.418;13.398;2022-12-10T09:15:29;30.90;;;16.48;;
26951;SDS011;14507;52.418;13.398;2022-12-10T09:17:55;29.17;;;16.88;;
26951;SDS011;14507;52.418;13.398;2022-12-10T09:20:21;30.00;;;16.17;;
26951;SDS011;14507;52.418;13.398;2022-12-10T09:22:46;29.88;;;15.80;;
26951;SDS011;14507;52.418;13.398;2022-12-10T09:25:12;29.40;;;16.73;;
26951;SDS011;14507;52.418;13.398;2022-12-10T09:27:40;31.73;;;16.83;;
26951;SDS011;14507;52.418;13.398;2022-12-10T09:30:06;29.98;;;16.55;;
26951;SDS011;14507;52.418;13.398;2022-12-10T09:32:32;33.35;;;17.13;;
26951;SDS011;14507;52.418;13.398;2022-12-10T09:34:58;30.10;;;16.27;;
26951;SDS011;14507;52.418;13.398;2022-12-10T09:37:23;28.88;;;16.40;;
26951;SDS011;14507;52.418;13.398;2022-12-10T09:39:49;33.63;;;17.58;;
26951;SDS011;14507;52.418;13.398;2022-12-10T09:42:21;30.50;;;16.17;;
26951;SDS011;14507;52.418;13.398;2022-12-10T09:53:54;29.02;;;15.80;;
26951;SDS011;14507;52.418;13.398;2022-12-10T09:56:34;31.58;;;16.80;;
26951;SDS011;14507;52.418;13.398;2022-12-10T09:59:10;31.25;;;16.88;;
26951;SDS011;14507;52.418;13.398;2022-12-10T10:01:43;33.38;;;17.38;;
26951;SDS011;14507;52.418;13.398;2022-12-10T10:04:10;30.23;;;17.27;;
26951;SDS011;14507;52.418;13.398;2022-12-10T10:06:36;33.30;;;17.45;;
26951;SDS011;14507;52.418;13.398;2022-12-10T10:09:02;31.73;;;17.02;;
26951;SDS011;14507;52.418;13.398;2022-12-10T10:11:31;32.63;;;17.77;;
26951;SDS011;14507;52.418;13.398;2022-12-10T10:16:48;29.55;;;15.85;;
26951;SDS011;14507;52.418;13.398;2022-12-10T10:19:20;32.72;;;15.75;;
26951;SDS011;14507;52.418;13.398;2022-12-10T10:21:49;30.45;;;15.93;;
26951;SDS011;14507;52.418;13.398;2022-12-10T10:24:17;30.55;;;15.52;;
26951;SDS011;14507;52.418;13.398;2022-12-10T10:26:45;32.47;;;15.57;;
26951;SDS011;14507;52.418;13.398;2022-12-10T10:29:13;31.27;;;17.02;;
26951;SDS011;14507;52.418;13.398;2022-12-10T10:31:42;28.02;;;15.70;;
26951;SDS011;14507;52.418;13.398;2022-12-10T10:34:16;28.77;;;16.98;;
26951;SDS011;14507;52.418;13.398;2022-12-10T10:36:44;28.58;;;16.70;;
26951;SDS011;14507;52.418;13.398;2022-12-10T10:39:16;32.30;;;17.85;;
26951;SDS011;14507;52.418;13.398;2022-12-10T10:41:50;31.50;;;17.35;;
26951;SDS011;14507;52.418;13.398;2022-12-10T10:44:19;33.13;;;17.55;;
26951;SDS011;14507;52.418;13.398;2022-12-10T10:46:47;31.52;;;17.77;;
26951;SDS011;14507;52.418;13.398;2022-12-10T10:51:58;37.45;;;17.92;;
26951;SDS011;14507;52.418;13.398;2022-12-10T10:57:11;30.20;;;16.00;;
26951;SDS011;14507;52.418;13.398;2022-12-10T10:59:46;30.70;;;16.35;;
26951;SDS011;14507;52.418;13.398;2022-12-10T11:05:04;27.10;;;15.93;;
26951;SDS011;14507;52.418;13.398;2022-12-10T11:10:00;31.47;;;17.33;;
26951;SDS011;14507;52.418;13.398;2022-12-10T11:12:34;27.05;;;16.10;;
26951;SDS011;14507;52.418;13.398;2022-12-10T11:15:04;28.88;;;16.45;;
26951;SDS011;14507;52.418;13.398;2022-12-10T11:17:51;33.15;;;15.95;;
26951;SDS011;14507;52.418;13.398;2022-12-10T11:20:19;30.42;;;16.85;;
26951;SDS011;14507;52.418;13.398;2022-12-10T11:22:55;27.70;;;15.90;;
26951;SDS011;14507;52.418;13.398;2022-12-10T11:25:40;31.40;;;17.33;;
26951;SDS011;14507;52.418;13.398;2022-12-10T11:31:11;30.35;;;16.75;;
26951;SDS011;14507;52.418;13.398;2022-12-10T11:33:47;30.65;;;16.98;;
26951;SDS011;14507;52.418;13.398;2022-12-10T11:42:03;32.35;;;17.40;;
26951;SDS011;14507;52.418;13.398;2022-12-10T11:44:36;30.50;;;17.77;;
26951;SDS011;14507;52.418;13.398;2022-12-10T11:52:46;32.63;;;17.85;;
26951;SDS011;14507;52.418;13.398;2022-12-10T12:01:28;36.65;;;19.40;;
26951;SDS011;14507;52.418;13.398;2022-12-10T12:14:39;36.75;;;20.55;;
26951;SDS011;14507;52.418;13.398;2022-12-10T12:19:39;33.47;;;19.42;;
26951;SDS011;14507;52.418;13.398;2022-12-10T12:22:32;36.20;;;19.67;;
26951;SDS011;14507;52.418;13.398;2022-12-10T12:25:07;34.30;;;19.17;;
26951;SDS011;14507;52.418;13.398;2022-12-10T12:27:53;37.78;;;20.67;;
26951;SDS011;14507;52.418;13.398;2022-12-10T12:30:26;35.03;;;20.08;;
26951;SDS011;14507;52.418;13.398;2022-12-10T12:33:02;35.55;;;20.30;;
26951;SDS011;14507;52.418;13.398;2022-12-10T12:35:44;43.95;;;20.35;;
26951;SDS011;14507;52.418;13.398;2022-12-10T12:38:28;35.72;;;18.67;;
26951;SDS011;14507;52.418;13.398;2022-12-10T12:41:03;38.22;;;19.60;;
26951;SDS011;14507;52.418;13.398;2022-12-10T12:44:00;38.88;;;19.77;;
26951;SDS011;14507;52.418;13.398;2022-12-10T12:46:47;34.97;;;19.85;;
26951;SDS011;14507;52.418;13.398;2022-12-10T12:49:18;36.50;;;20.00;;
26951;SDS011;14507;52.418;13.398;2022-12-10T12:54:50;34.53;;;18.85;;
26951;SDS011;14507;52.418;13.398;2022-12-10T12:57:38;35.42;;;19.95;;
26951;SDS011;14507;52.418;13.398;2022-12-10T13:00:29;41.30;;;21.13;;
26951;SDS011;14507;52.418;13.398;2022-12-10T13:05:48;34.88;;;18.05;;
26951;SDS011;14507;52.418;13.398;2022-12-10T13:32:18;37.30;;;19.85;;
26951;SDS011;14507;52.418;13.398;2022-12-10T13:34:46;35.03;;;18.15;;
26951;SDS011;14507;52.418;13.398;2022-12-10T13:37:31;37.28;;;20.77;;
26951;SDS011;14507;52.418;13.398;2022-12-10T13:42:34;34.78;;;18.80;;
26951;SDS011;14507;52.418;13.398;2022-12-10T13:47:52;35.45;;;19.75;;
26951;SDS011;14507;52.418;13.398;2022-12-10T13:50:35;34.72;;;19.27;;
26951;SDS011;14507;52.418;13.398;2022-12-10T13:53:24;34.53;;;17.92;;
26951;SDS011;14507;52.418;13.398;2022-12-10T14:01:52;36.65;;;20.13;;
26951;SDS011;14507;52.418;13.398;2022-12-10T14:07:32;34.75;;;19.33;;
26951;SDS011;14507;52.418;13.398;2022-12-10T14:10:01;36.53;;;19.92;;
26951;SDS011;14507;52.418;13.398;2022-12-10T14:12:34;37.30;;;19.60;;
26951;SDS011;14507;52.418;13.398;2022-12-10T14:15:08;39.72;;;19.52;;
26951;SDS011;14507;52.418;13.398;2022-12-10T14:17:44;39.00;;;19.35;;
26951;SDS011;14507;52.418;13.398;2022-12-10T14:20:15;36.08;;;18.23;;
26951;SDS011;14507;52.418;13.398;2022-12-10T14:22:48;31.90;;;18.63;;
26951;SDS011;14507;52.418;13.398;2022-12-10T14:25:18;35.40;;;19.50;;
26951;SDS011;14507;52.418;13.398;2022-12-10T14:27:52;38.33;;;19.90;;
26951;SDS011;14507;52.418;13.398;2022-12-10T14:30:20;37.15;;;20.40;;
26951;SDS011;14507;52.418;13.398;2022-12-10T14:32:53;35.65;;;19.10;;
26951;SDS011;14507;52.418;13.398;2022-12-10T14:35:24;35.63;;;18.98;;
26951;SDS011;14507;52.418;13.398;2022-12-10T14:37:52;39.78;;;20.30;;
26951;SDS011;14507;52.418;13.398;2022-12-10T14:40:28;34.10;;;18.88;;
26951;SDS011;14507;52.418;13.398;2022-12-10T14:43:17;35.97;;;18.60;;
26951;SDS011;14507;52.418;13.398;2022-12-10T14:45:47;33.95;;;19.00;;
26951;SDS011;14507;52.418;13.398;2022-12-10T14:48:24;41.08;;;19.92;;
26951;SDS011;14507;52.418;13.398;2022-12-10T14:50:50;39.85;;;19.85;;
26951;SDS011;14507;52.418;13.398;2022-12-10T14:53:22;37.78;;;18.73;;
26951;SDS011;14507;52.418;13.398;2022-12-10T14:55:50;38.92;;;20.40;;
26951;SDS011;14507;52.418;13.398;2022-12-10T15:01:00;41.95;;;20.65;;
26951;SDS011;14507;52.418;13.398;2022-12-10T15:03:30;37.97;;;20.10;;
26951;SDS011;14507;52.418;13.398;2022-12-10T15:06:00;44.75;;;21.33;;
26951;SDS011;14507;52.418;13.398;2022-12-10T15:08:30;37.42;;;19.95;;
26951;SDS011;14507;52.418;13.398;2022-12-10T15:10:57;40.70;;;21.30;;
26951;SDS011;14507;52.418;13.398;2022-12-10T15:16:00;42.90;;;20.88;;
26951;SDS011;14507;52.418;13.398;2022-12-10T15:18:28;41.92;;;20.40;;
26951;SDS011;14507;52.418;13.398;2022-12-10T15:23:41;44.63;;;20.67;;
26951;SDS011;14507;52.418;13.398;2022-12-10T15:26:15;46.33;;;21.85;;
26951;SDS011;14507;52.418;13.398;2022-12-10T15:28:48;47.78;;;22.88;;
26951;SDS011;14507;52.418;13.398;2022-12-10T15:33:50;45.22;;;22.58;;
26951;SDS011;14507;52.418;13.398;2022-12-10T15:36:33;47.35;;;22.60;;
26951;SDS011;14507;52.418;13.398;2022-12-10T15:41:52;47.80;;;23.38;;
26951;SDS011;14507;52.418;13.398;2022-12-10T15:46:57;42.33;;;20.48;;
26951;SDS011;14507;52.418;13.398;2022-12-10T15:49:23;42.22;;;21.13;;
26951;SDS011;14507;52.418;13.398;2022-12-10T15:51:49;44.35;;;21.15;;
26951;SDS011;14507;52.418;13.398;2022-12-10T15:54:35;47.10;;;21.40;;
26951;SDS011;14507;52.418;13.398;2022-12-10T15:57:21;49.42;;;21.05;;
26951;SDS011;14507;52.418;13.398;2022-12-10T15:59:53;46.35;;;22.73;;
26951;SDS011;14507;52.418;13.398;2022-12-10T16:02:25;52.03;;;22.30;;
26951;SDS011;14507;52.418;13.398;2022-12-10T16:04:52;46.28;;;21.17;;
26951;SDS011;14507;52.418;13.398;2022-12-10T16:07:18;51.20;;;21.70;;
26951;SDS011;14507;52.418;13.398;2022-12-10T16:09:44;50.20;;;21.67;;
26951;SDS011;14507;52.418;13.398;2022-12-10T16:12:14;50.58;;;22.20;;
26951;SDS011;14507;52.418;13.398;2022-12-10T16:14:44;43.20;;;20.27;;
26951;SDS011;14507;52.418;13.398;2022-12-10T16:17:14;54.33;;;21.23;;
26951;SDS011;14507;52.418;13.398;2022-12-10T16:19:40;49.88;;;22.60;;
26951;SDS011;14507;52.418;13.398;2022-12-10T16:22:06;47.08;;;21.77;;
26951;SDS011;14507;52.418;13.398;2022-12-10T16:24:31;48.60;;;20.95;;
26951;SDS011;14507;52.418;13.398;2022-12-10T16:26:57;45.90;;;20.15;;
26951;SDS011;14507;52.418;13.398;2022-12-10T16:29:23;54.35;;;22.15;;
26951;SDS011;14507;52.418;13.398;2022-12-10T16:31:49;54.00;;;23.13;;
26951;SDS011;14507;52.418;13.398;2022-12-10T16:34:14;52.58;;;21.60;;
26951;SDS011;14507;52.418;13.398;2022-12-10T16:36:40;51.10;;;21.38;;
26951;SDS011;14507;52.418;13.398;2022-12-10T16:39:06;53.47;;;21.63;;
26951;SDS011;14507;52.418;13.398;2022-12-10T16:41:32;55.15;;;22.88;;
26951;SDS011;14507;52.418;13.398;2022-12-10T16:43:58;54.72;;;22.48;;
26951;SDS011;14507;52.418;13.398;2022-12-10T16:46:24;53.17;;;22.83;;
26951;SDS011;14507;52.418;13.398;2022-12-10T16:48:49;63.22;;;23.15;;
26951;SDS011;14507;52.418;13.398;2022-12-10T16:51:21;56.38;;;23.02;;
26951;SDS011;14507;52.418;13.398;2022-12-10T16:53:49;60.20;;;21.58;;